createdAt,value
2022-08-21T00:00:44.609Z,1.10
2022-08-21T00:05:52.652Z,1.25
2022-08-21T00:10:55.948Z,1.25
2022-08-21T00:15:59.259Z,1.40
2022-08-21T00:21:03.343Z,1.30
2022-08-21T00:26:06.875Z,1.20
2022-08-21T00:31:10.760Z,1.40
2022-08-21T00:41:36.579Z,1.60
2022-08-21T00:46:43.967Z,1.30
2022-08-21T00:51:57.537Z,1.00
2022-08-21T00:57:04.090Z,1.10
2022-08-21T01:02:09.569Z,1.20
2022-08-21T01:07:12.825Z,1.40
2022-08-21T01:12:17.344Z,1.03
2022-08-21T01:22:24.544Z,1.80
2022-08-21T01:27:28.242Z,1.20
2022-08-21T01:32:31.528Z,1.30
2022-08-21T01:37:35.682Z,1.40
2022-08-21T01:42:40.154Z,1.20
2022-08-21T01:52:48.451Z,1.40
2022-08-21T01:57:52.499Z,1.30
2022-08-21T02:02:55.664Z,1.00
2022-08-21T02:07:59.141Z,1.20
2022-08-21T02:13:03.035Z,1.17
2022-08-21T02:18:07.950Z,1.00
2022-08-21T02:23:12.812Z,1.23
2022-08-21T02:28:16.687Z,0.90
2022-08-21T02:33:20.371Z,1.30
2022-08-21T02:43:30.270Z,1.40
2022-08-21T02:48:34.747Z,1.30
2022-08-21T02:53:38.867Z,1.17
2022-08-21T02:58:48.104Z,1.20
2022-08-21T03:03:55.409Z,1.25
2022-08-21T03:08:59.487Z,1.88
2022-08-21T03:14:02.695Z,1.10
2022-08-21T03:19:06.420Z,1.02
2022-08-21T03:24:11.087Z,1.33
2022-08-21T03:29:14.544Z,1.60
2022-08-21T03:34:17.677Z,1.17
2022-08-21T03:39:20.972Z,0.90
2022-08-21T03:44:24.424Z,1.42
2022-08-21T03:49:28.003Z,1.40
2022-08-21T03:54:31.473Z,1.40
2022-08-21T03:59:34.940Z,1.50
2022-08-21T04:04:39.009Z,1.38
2022-08-21T04:09:42.536Z,1.10
2022-08-21T04:14:45.711Z,0.90
2022-08-21T04:19:53.171Z,1.52
2022-08-21T04:24:57.011Z,1.25
2022-08-21T04:30:00.245Z,1.40
2022-08-21T04:35:07.562Z,1.30
2022-08-21T04:40:13.271Z,1.52
2022-08-21T04:45:29.155Z,1.80
2022-08-21T04:50:58.181Z,1.30
2022-08-21T04:56:06.403Z,1.60
2022-08-21T05:01:17.874Z,2.00
2022-08-21T05:06:22.451Z,1.38
2022-08-21T05:11:25.969Z,1.48
2022-08-21T05:16:36.716Z,1.30
2022-08-21T05:21:44.541Z,1.40
2022-08-21T05:26:48.161Z,1.60
2022-08-21T05:31:51.707Z,1.30
2022-08-21T05:41:58.947Z,1.30
2022-08-21T05:47:10.288Z,1.30
2022-08-21T05:52:13.358Z,1.50
2022-08-21T05:57:16.990Z,1.45
2022-08-21T06:02:22.131Z,1.30
2022-08-21T06:07:25.295Z,1.23
2022-08-21T06:12:28.734Z,1.52
2022-08-21T06:17:31.923Z,1.37
2022-08-21T06:22:36.126Z,1.10
2022-08-21T06:27:39.407Z,1.50
2022-08-21T06:32:42.537Z,1.10
2022-08-21T06:37:45.693Z,1.10
2022-08-21T06:42:49.242Z,1.20
2022-08-21T06:47:52.737Z,1.17
2022-08-21T06:53:08.020Z,1.00
2022-08-21T06:58:11.949Z,0.98
2022-08-21T07:08:24.713Z,0.75
2022-08-21T07:13:28.736Z,0.70
2022-08-21T07:18:32.042Z,0.50
2022-08-21T07:23:39.949Z,0.80
2022-08-21T07:28:43.305Z,0.93
2022-08-21T07:33:48.019Z,0.80
2022-08-21T07:38:52.810Z,1.05
2022-08-21T07:43:59.038Z,0.73
2022-08-21T07:49:02.555Z,0.90
2022-08-21T07:54:05.774Z,0.80
2022-08-21T07:59:09.751Z,0.93
2022-08-21T08:04:12.991Z,0.85
2022-08-21T08:09:17.099Z,0.60
2022-08-21T08:14:20.448Z,1.00
2022-08-21T08:19:34.699Z,0.80
2022-08-21T08:24:40.808Z,0.63
2022-08-21T08:29:44.723Z,0.70
2022-08-21T08:34:49.057Z,1.25
2022-08-21T08:39:52.449Z,0.80
2022-08-21T08:45:05.273Z,0.65
2022-08-21T08:50:18.860Z,0.70
2022-08-21T08:55:30.688Z,0.70
2022-08-21T09:10:23.684Z,0.77
2022-08-21T09:29:45.499Z,0.68
2022-08-21T09:35:07.855Z,0.70
2022-08-21T09:40:35.389Z,0.80
2022-08-21T09:50:30.190Z,0.70
2022-08-21T11:05:50.921Z,0.40
2022-08-21T11:11:00.990Z,0.43
2022-08-21T11:50:35.380Z,0.35
2022-08-21T11:56:03.710Z,0.93
2022-08-21T12:05:58.963Z,0.70
2022-08-21T12:11:11.607Z,1.45
2022-08-21T12:16:17.668Z,0.60
2022-08-21T12:21:27.388Z,0.70
2022-08-21T12:26:50.210Z,0.65
2022-08-21T12:31:59.567Z,0.68
2022-08-21T12:37:09.523Z,0.60
2022-08-21T12:42:20.317Z,0.70
2022-08-21T12:47:35.285Z,0.85
2022-08-21T12:53:20.193Z,1.00
2022-08-21T12:58:26.223Z,0.70
2022-08-21T13:03:30.643Z,0.88
2022-08-21T13:08:40.934Z,0.70
2022-08-21T13:13:51.279Z,0.70
2022-08-21T13:19:03.129Z,0.90
2022-08-21T13:24:41.836Z,0.80
2022-08-21T13:29:51.441Z,0.80
2022-08-21T13:34:57.847Z,0.70
2022-08-21T13:40:01.514Z,0.77
2022-08-21T13:45:05.055Z,0.80
2022-08-21T13:50:09.492Z,0.70
2022-08-21T13:55:17.705Z,0.85
2022-08-21T14:00:28.169Z,0.82
2022-08-21T14:05:34.497Z,0.95
2022-08-21T14:10:44.827Z,0.60
2022-08-21T14:15:58.332Z,0.90
2022-08-21T14:21:11.812Z,0.95
2022-08-21T14:31:31.343Z,0.90
2022-08-21T14:36:34.684Z,1.00
2022-08-21T14:41:40.514Z,1.10
2022-08-21T14:46:55.402Z,1.80
2022-08-21T14:51:59.962Z,1.70
2022-08-21T14:57:13.808Z,1.88
2022-08-21T15:02:17.144Z,1.70
2022-08-21T15:07:20.439Z,2.10
2022-08-21T15:12:23.696Z,2.20
2022-08-21T15:17:27.875Z,1.73
2022-08-21T15:27:34.543Z,1.88
2022-08-21T15:32:37.812Z,2.20
2022-08-21T15:37:41.760Z,2.10
2022-08-21T15:42:46.137Z,2.13
2022-08-21T15:47:51.219Z,2.28
2022-08-21T15:52:54.940Z,1.83
2022-08-21T15:58:00.034Z,1.90
2022-08-21T16:03:08.666Z,1.80
2022-08-21T16:08:12.708Z,2.00
2022-08-21T16:13:27.458Z,2.03
2022-08-21T16:18:30.528Z,2.42
2022-08-21T16:23:33.676Z,1.73
2022-08-21T16:28:42.240Z,2.08
2022-08-21T16:33:52.109Z,1.80
2022-08-21T16:44:06.746Z,2.25
2022-08-21T16:49:10.997Z,2.17
2022-08-21T16:54:14.845Z,1.90
2022-08-21T16:59:18.550Z,2.00
2022-08-21T17:04:22.054Z,1.88
2022-08-21T17:09:25.379Z,1.70
2022-08-21T17:14:28.433Z,1.90
2022-08-21T17:19:31.820Z,2.23
2022-08-21T17:24:36.139Z,2.10
2022-08-21T17:29:41.244Z,2.13
2022-08-21T17:34:44.686Z,1.95
2022-08-21T17:39:48.038Z,2.17
2022-08-21T17:44:51.267Z,1.80
2022-08-21T17:49:54.557Z,1.70
2022-08-21T17:54:58.090Z,1.97
2022-08-21T18:00:01.488Z,2.00
2022-08-21T18:05:06.691Z,1.87
2022-08-21T18:10:12.862Z,1.83
2022-08-21T18:15:19.544Z,1.85
2022-08-21T18:20:24.800Z,1.70
2022-08-21T18:25:27.971Z,1.80
2022-08-21T18:30:31.364Z,2.10
2022-08-21T18:35:34.504Z,2.22
2022-08-21T18:40:44.262Z,2.88
2022-08-21T18:45:47.972Z,2.40
2022-08-21T18:50:51.331Z,2.33
2022-08-21T18:55:56.934Z,2.13
2022-08-21T19:01:02.027Z,2.20
2022-08-21T19:06:05.557Z,1.63
2022-08-21T19:11:13.486Z,2.13
2022-08-21T19:16:17.841Z,2.03
2022-08-21T19:21:21.360Z,1.75
2022-08-21T19:26:29.050Z,2.20
2022-08-21T19:31:35.416Z,2.30
2022-08-21T19:36:39.869Z,1.80
2022-08-21T19:41:51.279Z,2.08
2022-08-21T19:46:58.270Z,1.90
2022-08-21T19:52:02.403Z,2.47
2022-08-21T19:57:17.361Z,1.90
2022-08-21T20:02:20.713Z,2.10
2022-08-21T20:07:25.160Z,2.10
2022-08-21T20:12:30.503Z,2.20
2022-08-21T20:17:33.880Z,2.40
2022-08-21T20:22:37.327Z,1.88
2022-08-21T20:27:42.031Z,2.10
2022-08-21T20:32:45.174Z,1.77
2022-08-21T20:37:58.677Z,1.75
2022-08-21T20:43:04.211Z,2.07
2022-08-21T20:48:25.148Z,1.60
2022-08-21T20:54:07.187Z,1.60
2022-08-21T20:59:22.005Z,2.10
2022-08-21T21:04:35.926Z,2.00
2022-08-21T21:09:45.495Z,2.00
2022-08-21T21:14:54.745Z,2.00
2022-08-21T21:20:04.985Z,1.80
2022-08-21T21:25:15.746Z,2.40
2022-08-21T21:30:28.722Z,2.40
2022-08-21T21:35:38.393Z,2.30
2022-08-21T21:40:54.644Z,2.13
2022-08-21T21:46:04.148Z,2.53
2022-08-21T21:51:23.386Z,2.50
2022-08-21T21:56:35.899Z,2.35
2022-08-21T22:01:52.788Z,1.92
2022-08-21T22:07:07.972Z,2.67
2022-08-21T22:12:20.334Z,2.08
2022-08-21T22:17:33.682Z,2.42
2022-08-21T22:22:39.757Z,2.85
2022-08-21T22:27:45.617Z,2.40
2022-08-21T22:32:50.581Z,2.53
2022-08-21T22:38:00.761Z,2.60
2022-08-21T22:43:21.140Z,2.40
2022-08-21T22:48:27.579Z,2.38
2022-08-21T22:53:34.288Z,2.60
2022-08-21T22:58:39.147Z,2.80
2022-08-21T23:03:51.595Z,2.55
2022-08-21T23:08:55.622Z,2.17
2022-08-21T23:13:59.162Z,2.20
2022-08-21T23:19:29.113Z,2.22
2022-08-21T23:25:00.790Z,2.47
2022-08-21T23:30:22.161Z,2.30
2022-08-21T23:36:13.386Z,2.40
2022-08-21T23:41:39.786Z,2.30
2022-08-21T23:46:54.771Z,2.40
2022-08-21T23:52:29.030Z,2.40
2022-08-21T23:58:13.700Z,2.53
